Time;durP1;ratioP1;P1;durP2;ratioP2;P2;SDS_P1;SDS_P2;PMS_P1;PMS_P2;Temp;Humidity;BMP_temperature;BMP_pressure;BME280_temperature;BME280_humidity;BME280_pressure;Samples;Min_cycle;Max_cycle;Signal;HPM_P1;HPM_P2
2023/04/26 00:02:16;;;;;;;;;;;5.70;99.90;;;;;;5012933;28;19913;-69
2023/04/26 00:04:54;;;;;;;;;;;5.70;99.90;;;;;;5013232;28;19909;-71
2023/04/26 00:07:23;;;;;;;;;;;5.70;99.90;;;;;;5014035;28;19909;-70
2023/04/26 00:09:49;;;;;;;;;;;5.60;99.90;;;;;;5011225;28;19971;-69
2023/04/26 00:12:15;;;;;;;;;;;5.70;99.90;;;;;;5020913;28;19963;-69
2023/04/26 00:14:41;;;;;;;;;;;5.70;99.90;;;;;;5015865;28;19913;-69
2023/04/26 00:17:06;;;;;;;;;;;5.60;99.90;;;;;;4997022;28;19917;-69
2023/04/26 00:19:32;;;;;;;;;;;5.70;99.90;;;;;;5013004;28;20270;-71
2023/04/26 00:22:00;;;;;;;;;;;5.70;99.90;;;;;;5012975;28;19913;-71
2023/04/26 00:24:25;;;;;;;;;;;5.70;99.90;;;;;;5015363;28;19924;-74
2023/04/26 00:26:54;;;;;;;;;;;5.60;99.90;;;;;;5016514;28;19953;-69
2023/04/26 00:29:20;;;;;;;;;;;5.70;99.90;;;;;;5013769;28;19961;-73
2023/04/26 00:31:46;;;;;;;;;;;5.60;99.90;;;;;;5016985;28;19952;-68
2023/04/26 00:34:12;;;;;;;;;;;5.60;99.90;;;;;;5013494;28;19913;-71
2023/04/26 00:36:38;;;;;;;;;;;5.60;99.90;;;;;;5011974;28;20336;-70
2023/04/26 00:39:04;;;;;;;;;;;5.60;99.90;;;;;;5013492;28;19924;-72
2023/04/26 00:41:30;;;;;;;;;;;5.60;99.90;;;;;;5015103;28;19909;-74
2023/04/26 00:43:55;;;;;;;;;;;5.70;99.90;;;;;;5016052;28;19916;-71
2023/04/26 00:46:21;;;;;;;;;;;5.60;99.90;;;;;;5016411;28;19909;-73
2023/04/26 00:48:47;;;;;;;;;;;5.60;99.90;;;;;;5015059;28;19921;-71
2023/04/26 00:51:13;;;;;;;;;;;5.60;99.90;;;;;;5017135;28;20388;-73
2023/04/26 00:53:39;;;;;;;;;;;5.60;99.90;;;;;;5019080;28;19952;-69
2023/04/26 00:56:15;;;;;;;;;;;5.60;99.90;;;;;;5048710;28;19913;-72
2023/04/26 00:58:42;;;;;;;;;;;5.60;99.90;;;;;;5014468;28;20284;-71
2023/04/26 01:01:08;;;;;;;;;;;5.60;99.90;;;;;;5012862;28;20308;-70
2023/04/26 01:03:34;;;;;;;;;;;5.60;99.90;;;;;;4997213;28;19931;-71
2023/04/26 01:06:00;;;;;;;;;;;5.60;99.90;;;;;;5012108;28;19932;-70
2023/04/26 01:08:25;;;;;;;;;;;5.60;99.90;;;;;;4997383;28;19920;-72
2023/04/26 01:10:52;;;;;;;;;;;5.50;99.90;;;;;;5014364;28;19913;-73
2023/04/26 01:13:17;;;;;;;;;;;5.50;99.90;;;;;;5027356;28;19922;-71
2023/04/26 01:15:44;;;;;;;;;;;5.40;99.90;;;;;;5010738;28;20377;-73
2023/04/26 01:18:10;;;;;;;;;;;5.40;99.90;;;;;;5011780;28;19914;-69
2023/04/26 01:20:36;;;;;;;;;;;5.40;99.90;;;;;;5013999;28;19941;-71
2023/04/26 01:23:02;;;;;;;;;;;5.40;99.90;;;;;;5012112;28;20305;-69
2023/04/26 01:25:27;;;;;;;;;;;5.40;99.90;;;;;;5010193;28;19946;-70
2023/04/26 01:27:53;;;;;;;;;;;5.40;99.90;;;;;;5012760;28;19963;-70
2023/04/26 01:30:19;;;;;;;;;;;5.30;99.90;;;;;;5013557;28;19917;-71
2023/04/26 01:32:44;;;;;;;;;;;5.30;99.90;;;;;;5011812;28;20405;-71
2023/04/26 01:35:10;;;;;;;;;;;5.30;99.90;;;;;;5013940;28;20499;-71
2023/04/26 01:37:36;;;;;;;;;;;5.30;99.90;;;;;;5012320;28;19912;-73
2023/04/26 01:40:05;;;;;;;;;;;5.30;99.90;;;;;;5015270;28;20369;-69
2023/04/26 01:42:30;;;;;;;;;;;5.20;99.90;;;;;;5014434;28;19910;-70
2023/04/26 01:44:56;;;;;;;;;;;5.20;99.90;;;;;;5016210;28;19915;-71
2023/04/26 01:47:22;;;;;;;;;;;5.20;99.90;;;;;;5016211;28;19913;-71
2023/04/26 01:49:47;;;;;;;;;;;5.10;99.90;;;;;;5008653;28;19920;-70
2023/04/26 01:52:13;;;;;;;;;;;5.10;99.90;;;;;;5014077;28;19914;-70
2023/04/26 01:54:39;;;;;;;;;;;5.10;99.90;;;;;;5012625;28;19920;-72
2023/04/26 01:57:04;;;;;;;;;;;5.20;99.90;;;;;;5012587;28;19909;-70
2023/04/26 01:59:30;;;;;;;;;;;5.10;99.90;;;;;;5012861;28;19989;-70
2023/04/26 02:01:56;;;;;;;;;;;5.10;99.90;;;;;;5011504;28;20067;-69
2023/04/26 02:04:23;;;;;;;;;;;5.20;99.90;;;;;;5010369;28;19917;-71
2023/04/26 02:06:48;;;;;;;;;;;5.10;99.90;;;;;;5036697;28;19913;-69
2023/04/26 02:09:14;;;;;;;;;;;5.20;99.90;;;;;;5010673;28;20328;-69
2023/04/26 02:11:40;;;;;;;;;;;5.20;99.90;;;;;;5029589;28;19924;-74
2023/04/26 02:14:05;;;;;;;;;;;5.10;99.90;;;;;;5011998;28;19913;-69
2023/04/26 02:16:31;;;;;;;;;;;5.20;99.90;;;;;;5009335;28;19992;-69
2023/04/26 02:18:58;;;;;;;;;;;5.20;99.90;;;;;;5013608;28;19909;-70
2023/04/26 02:21:23;;;;;;;;;;;5.20;99.90;;;;;;5042516;28;19964;-69
2023/04/26 02:23:49;;;;;;;;;;;5.30;99.90;;;;;;5013122;28;19940;-68
2023/04/26 02:26:15;;;;;;;;;;;5.40;99.90;;;;;;5011506;28;19917;-69
2023/04/26 02:28:41;;;;;;;;;;;5.30;99.90;;;;;;5012127;28;19940;-68
2023/04/26 02:31:06;;;;;;;;;;;5.20;99.90;;;;;;5013637;28;20385;-68
2023/04/26 02:33:32;;;;;;;;;;;5.20;99.90;;;;;;5011437;28;20529;-68
2023/04/26 02:35:58;;;;;;;;;;;5.20;99.90;;;;;;5009096;28;20357;-69
2023/04/26 02:38:26;;;;;;;;;;;5.10;99.90;;;;;;5010682;28;19917;-70
2023/04/26 02:40:58;;;;;;;;;;;5.10;99.90;;;;;;5011409;28;19910;-69
2023/04/26 02:43:24;;;;;;;;;;;5.00;99.90;;;;;;5014726;28;19919;-69
2023/04/26 02:45:50;;;;;;;;;;;5.00;99.90;;;;;;5008340;28;19925;-71
2023/04/26 02:48:16;;;;;;;;;;;4.90;99.90;;;;;;5012660;28;19923;-69
2023/04/26 02:50:42;;;;;;;;;;;4.90;99.90;;;;;;5012905;28;19913;-70
2023/04/26 02:53:08;;;;;;;;;;;4.90;99.90;;;;;;5010364;28;20051;-69
2023/04/26 02:55:33;;;;;;;;;;;4.90;99.90;;;;;;5009991;28;19924;-69
2023/04/26 02:57:59;;;;;;;;;;;4.90;99.90;;;;;;5010184;28;19909;-69
2023/04/26 03:00:27;;;;;;;;;;;4.90;99.90;;;;;;5007322;28;19940;-69
2023/04/26 03:02:53;;;;;;;;;;;4.90;99.90;;;;;;5012429;28;19913;-71
2023/04/26 03:05:18;;;;;;;;;;;4.90;99.90;;;;;;5016520;28;19931;-73
2023/04/26 03:07:45;;;;;;;;;;;4.80;99.90;;;;;;5014594;28;19913;-73
2023/04/26 03:10:10;;;;;;;;;;;4.80;99.90;;;;;;5013221;28;20058;-72
2023/04/26 03:12:36;;;;;;;;;;;4.80;99.90;;;;;;5015519;28;19952;-70
2023/04/26 03:15:03;;;;;;;;;;;4.80;99.90;;;;;;5015245;28;20352;-71
2023/04/26 03:17:28;;;;;;;;;;;4.80;99.90;;;;;;5015171;28;19909;-71
2023/04/26 03:19:54;;;;;;;;;;;4.80;99.90;;;;;;5012730;28;19908;-72
2023/04/26 03:22:20;;;;;;;;;;;4.70;99.90;;;;;;4999104;28;19913;-73
2023/04/26 03:24:46;;;;;;;;;;;4.70;99.90;;;;;;5018215;28;19952;-69
2023/04/26 03:27:12;;;;;;;;;;;4.70;99.90;;;;;;5014629;28;19913;-71
2023/04/26 03:29:38;;;;;;;;;;;4.70;99.90;;;;;;5016314;28;19912;-70
2023/04/26 03:32:03;;;;;;;;;;;4.70;99.90;;;;;;5009882;28;20004;-69
2023/04/26 03:34:30;;;;;;;;;;;4.70;99.90;;;;;;5010679;28;19913;-71
2023/04/26 03:36:56;;;;;;;;;;;4.70;99.90;;;;;;5012702;28;19920;-70
2023/04/26 03:39:21;;;;;;;;;;;4.70;99.90;;;;;;5012912;28;19913;-73
2023/04/26 03:41:47;;;;;;;;;;;4.70;99.90;;;;;;5032685;28;19963;-68
2023/04/26 03:44:13;;;;;;;;;;;4.70;99.90;;;;;;5019849;28;19909;-69
2023/04/26 03:46:38;;;;;;;;;;;4.70;99.90;;;;;;5014302;28;19929;-69
2023/04/26 03:49:04;;;;;;;;;;;4.70;99.90;;;;;;5017651;28;19924;-69
2023/04/26 03:51:30;;;;;;;;;;;4.70;99.90;;;;;;5016253;28;19917;-69
2023/04/26 03:53:56;;;;;;;;;;;4.70;99.90;;;;;;5014263;28;19921;-69
2023/04/26 03:56:22;;;;;;;;;;;4.70;99.90;;;;;;5015741;28;19915;-70
2023/04/26 03:58:48;;;;;;;;;;;4.70;99.90;;;;;;5014188;28;19913;-71
2023/04/26 04:01:14;;;;;;;;;;;4.70;99.90;;;;;;5017576;28;19914;-69
2023/04/26 04:03:40;;;;;;;;;;;4.70;99.90;;;;;;5017245;28;19924;-70
2023/04/26 04:06:06;;;;;;;;;;;4.70;99.90;;;;;;5015064;28;19909;-69
2023/04/26 04:08:31;;;;;;;;;;;4.70;99.90;;;;;;5011728;28;20851;-71
2023/04/26 04:10:57;;;;;;;;;;;4.70;99.90;;;;;;5014448;28;19916;-71
2023/04/26 04:13:22;;;;;;;;;;;4.70;99.90;;;;;;5016677;28;20404;-72
2023/04/26 04:15:48;;;;;;;;;;;4.70;99.90;;;;;;5016895;28;19970;-69
2023/04/26 04:18:13;;;;;;;;;;;4.70;99.90;;;;;;5013204;28;19913;-69
2023/04/26 04:20:46;;;;;;;;;;;4.60;99.90;;;;;;5014048;28;19983;-69
2023/04/26 04:23:12;;;;;;;;;;;4.60;99.90;;;;;;5046868;28;19913;-69
2023/04/26 04:25:38;;;;;;;;;;;4.60;99.90;;;;;;5011879;28;19924;-69
2023/04/26 04:28:04;;;;;;;;;;;4.50;99.90;;;;;;5016593;28;20004;-70
2023/04/26 04:30:29;;;;;;;;;;;4.50;99.90;;;;;;5017590;28;19916;-70
2023/04/26 04:32:57;;;;;;;;;;;4.50;99.90;;;;;;5016349;28;19912;-72
2023/04/26 04:35:27;;;;;;;;;;;4.50;99.90;;;;;;5010831;28;19963;-69
2023/04/26 04:37:55;;;;;;;;;;;4.50;99.90;;;;;;5007578;28;20369;-69
2023/04/26 04:40:22;;;;;;;;;;;4.50;99.90;;;;;;5039756;28;19913;-70
2023/04/26 04:42:48;;;;;;;;;;;4.50;99.90;;;;;;5017832;28;20263;-73
2023/04/26 04:45:13;;;;;;;;;;;4.60;99.90;;;;;;5007381;28;19920;-70
2023/04/26 04:47:39;;;;;;;;;;;4.60;99.90;;;;;;5011013;28;19909;-70
2023/04/26 04:50:05;;;;;;;;;;;4.60;99.90;;;;;;5013553;28;19940;-70
2023/04/26 04:52:32;;;;;;;;;;;4.60;99.90;;;;;;5012782;28;19920;-69
2023/04/26 04:54:58;;;;;;;;;;;4.70;99.90;;;;;;5012209;28;19916;-73
2023/04/26 04:57:23;;;;;;;;;;;4.70;99.90;;;;;;5013518;28;19913;-70
2023/04/26 04:59:50;;;;;;;;;;;4.80;99.90;;;;;;5013141;28;19991;-69
2023/04/26 05:02:15;;;;;;;;;;;4.80;99.90;;;;;;5005202;28;19996;-69
2023/04/26 05:04:42;;;;;;;;;;;4.90;99.90;;;;;;5012137;28;20040;-69
2023/04/26 05:07:08;;;;;;;;;;;4.90;99.90;;;;;;4994674;28;19916;-69
2023/04/26 05:09:34;;;;;;;;;;;5.00;99.90;;;;;;5015546;28;20462;-70
2023/04/26 05:12:01;;;;;;;;;;;5.10;99.90;;;;;;5011275;28;19913;-70
2023/04/26 05:14:28;;;;;;;;;;;5.00;99.90;;;;;;5008247;28;19913;-70
2023/04/26 05:16:54;;;;;;;;;;;5.10;99.90;;;;;;5011785;28;20680;-69
2023/04/26 05:19:19;;;;;;;;;;;5.00;99.90;;;;;;5013484;28;19909;-70
2023/04/26 05:21:45;;;;;;;;;;;5.00;99.90;;;;;;5011231;28;21138;-70
2023/04/26 05:24:11;;;;;;;;;;;5.00;99.90;;;;;;5043851;28;19909;-72
2023/04/26 05:26:36;;;;;;;;;;;4.90;99.90;;;;;;5009113;28;19923;-69
2023/04/26 05:29:02;;;;;;;;;;;5.00;99.90;;;;;;5002421;28;19917;-68
2023/04/26 05:31:28;;;;;;;;;;;5.00;99.90;;;;;;5000866;28;20059;-69
2023/04/26 05:33:53;;;;;;;;;;;4.90;99.90;;;;;;5007763;28;19925;-69
2023/04/26 05:36:20;;;;;;;;;;;5.00;99.90;;;;;;5009393;28;19909;-68
2023/04/26 05:38:45;;;;;;;;;;;5.00;99.90;;;;;;5011477;28;19966;-69
2023/04/26 05:41:11;;;;;;;;;;;5.10;99.90;;;;;;5011375;28;19913;-70
2023/04/26 05:43:36;;;;;;;;;;;5.10;99.90;;;;;;5012976;28;19909;-72
2023/04/26 05:46:02;;;;;;;;;;;5.30;99.90;;;;;;5042628;28;19916;-68
2023/04/26 05:48:28;;;;;;;;;;;5.40;99.90;;;;;;5011828;28;20369;-68
2023/04/26 05:50:54;;;;;;;;;;;5.50;99.90;;;;;;5004639;28;19917;-69
2023/04/26 05:53:21;;;;;;;;;;;5.60;99.90;;;;;;5003718;28;19940;-70
2023/04/26 05:55:46;;;;;;;;;;;5.50;99.90;;;;;;5004621;28;20391;-72
2023/04/26 05:58:12;;;;;;;;;;;5.50;99.90;;;;;;5005655;28;19917;-70
2023/04/26 06:00:38;;;;;;;;;;;5.50;99.90;;;;;;5007244;28;19982;-70
2023/04/26 06:03:04;;;;;;;;;;;5.50;99.90;;;;;;5008107;28;20408;-73
2023/04/26 06:05:30;;;;;;;;;;;5.50;99.90;;;;;;5003933;28;20293;-70
2023/04/26 06:07:56;;;;;;;;;;;5.40;99.90;;;;;;5003838;28;19992;-70
2023/04/26 06:10:21;;;;;;;;;;;5.40;99.90;;;;;;5008881;28;19952;-71
2023/04/26 06:12:47;;;;;;;;;;;5.40;99.90;;;;;;5010122;28;19949;-70
2023/04/26 06:15:13;;;;;;;;;;;5.40;99.90;;;;;;5006251;28;19905;-70
2023/04/26 06:17:41;;;;;;;;;;;5.50;99.90;;;;;;5004344;28;19937;-70
2023/04/26 06:20:10;;;;;;;;;;;5.60;99.90;;;;;;5007981;28;19916;-70
2023/04/26 06:22:37;;;;;;;;;;;5.70;99.90;;;;;;5039303;28;19971;-70
2023/04/26 06:25:03;;;;;;;;;;;5.90;99.90;;;;;;5008578;28;20357;-71
2023/04/26 06:27:29;;;;;;;;;;;5.90;99.90;;;;;;5010118;28;20043;-69
2023/04/26 06:29:55;;;;;;;;;;;5.90;99.90;;;;;;5003691;28;20011;-70
2023/04/26 06:32:21;;;;;;;;;;;5.90;99.90;;;;;;5007945;28;19913;-71
2023/04/26 06:34:46;;;;;;;;;;;6.00;99.90;;;;;;5009750;28;20414;-70
2023/04/26 06:37:12;;;;;;;;;;;6.00;99.90;;;;;;5012889;28;19909;-70
2023/04/26 06:39:37;;;;;;;;;;;6.00;99.90;;;;;;5012661;28;19916;-71
2023/04/26 06:42:04;;;;;;;;;;;6.00;99.90;;;;;;5008990;28;19937;-70
2023/04/26 06:44:29;;;;;;;;;;;6.00;99.90;;;;;;5013624;28;19909;-71
2023/04/26 06:46:56;;;;;;;;;;;6.00;99.90;;;;;;5008489;28;19968;-71
2023/04/26 06:49:21;;;;;;;;;;;6.00;99.90;;;;;;5013664;28;19927;-71
2023/04/26 06:51:47;;;;;;;;;;;6.10;99.90;;;;;;5013076;28;19963;-69
2023/04/26 06:54:13;;;;;;;;;;;6.20;99.90;;;;;;5010086;28;19913;-68
2023/04/26 06:56:39;;;;;;;;;;;6.20;99.90;;;;;;5007321;28;19920;-69
2023/04/26 06:59:05;;;;;;;;;;;6.20;99.90;;;;;;5011332;28;19948;-69
2023/04/26 07:01:34;;;;;;;;;;;6.20;99.90;;;;;;5006979;28;19945;-69
2023/04/26 07:04:03;;;;;;;;;;;6.30;99.90;;;;;;5012251;28;20337;-69
2023/04/26 07:06:30;;;;;;;;;;;6.40;99.90;;;;;;5007707;28;20238;-69
2023/04/26 07:08:57;;;;;;;;;;;6.40;99.90;;;;;;5011228;28;20454;-70
2023/04/26 07:11:23;;;;;;;;;;;6.40;99.90;;;;;;5005291;28;19957;-70
2023/04/26 07:13:48;;;;;;;;;;;6.50;99.90;;;;;;5006902;28;19975;-69
2023/04/26 07:16:14;;;;;;;;;;;6.50;99.90;;;;;;5011040;28;19913;-70
2023/04/26 07:18:40;;;;;;;;;;;6.50;99.90;;;;;;5014594;28;19959;-77
2023/04/26 07:21:06;;;;;;;;;;;6.60;99.90;;;;;;5009525;28;20019;-69
2023/04/26 07:23:31;;;;;;;;;;;6.70;99.90;;;;;;5013778;28;19917;-70
2023/04/26 07:25:57;;;;;;;;;;;6.70;99.90;;;;;;5012514;28;20388;-71
2023/04/26 07:28:23;;;;;;;;;;;6.80;99.90;;;;;;5010646;28;20246;-72
2023/04/26 07:30:48;;;;;;;;;;;6.70;99.90;;;;;;5008999;28;20376;-70
2023/04/26 07:33:14;;;;;;;;;;;6.70;99.90;;;;;;5014529;28;20017;-71
2023/04/26 07:35:41;;;;;;;;;;;6.70;99.90;;;;;;5012564;28;20380;-70
2023/04/26 07:38:07;;;;;;;;;;;6.90;99.90;;;;;;5013098;28;19925;-70
2023/04/26 07:40:33;;;;;;;;;;;7.00;99.90;;;;;;5009281;28;19909;-70
2023/04/26 07:42:59;;;;;;;;;;;7.10;99.90;;;;;;5012151;28;19923;-71
2023/04/26 07:45:24;;;;;;;;;;;7.10;99.90;;;;;;5016174;28;19959;-73
2023/04/26 07:47:50;;;;;;;;;;;7.30;99.90;;;;;;5018505;28;19913;-70
2023/04/26 07:50:16;;;;;;;;;;;7.40;99.90;;;;;;5012160;28;19967;-70
2023/04/26 07:52:42;;;;;;;;;;;7.60;99.90;;;;;;5016067;28;19968;-70
2023/04/26 07:55:08;;;;;;;;;;;7.50;99.90;;;;;;5014602;28;19909;-69
2023/04/26 07:57:33;;;;;;;;;;;7.50;99.90;;;;;;5018669;28;20346;-69
2023/04/26 07:59:59;;;;;;;;;;;7.40;99.90;;;;;;5017922;28;19948;-69
2023/04/26 08:02:25;;;;;;;;;;;7.10;99.90;;;;;;5015269;28;19917;-69
2023/04/26 08:04:54;;;;;;;;;;;6.90;99.90;;;;;;5013116;28;19983;-70
2023/04/26 08:07:20;;;;;;;;;;;6.60;99.90;;;;;;5011436;28;20285;-70
2023/04/26 08:09:46;;;;;;;;;;;6.40;99.90;;;;;;4998352;28;19931;-69
2023/04/26 08:12:11;;;;;;;;;;;6.40;99.90;;;;;;4999940;28;20504;-69
2023/04/26 08:14:37;;;;;;;;;;;6.40;99.90;;;;;;5045080;28;19921;-70
2023/04/26 08:17:03;;;;;;;;;;;6.40;99.90;;;;;;5017407;28;19916;-70
2023/04/26 08:19:33;;;;;;;;;;;6.50;99.90;;;;;;5012463;28;19958;-72
2023/04/26 08:21:58;;;;;;;;;;;6.50;99.90;;;;;;5013939;28;19910;-71
2023/04/26 08:24:24;;;;;;;;;;;6.50;99.90;;;;;;5014314;28;19967;-70
2023/04/26 08:26:49;;;;;;;;;;;6.60;99.90;;;;;;5017389;28;19975;-70
2023/04/26 08:29:16;;;;;;;;;;;6.70;99.90;;;;;;5013725;28;19912;-71
2023/04/26 08:31:41;;;;;;;;;;;6.70;99.90;;;;;;5015805;28;19924;-71
2023/04/26 08:34:10;;;;;;;;;;;6.80;99.90;;;;;;5013619;28;19918;-71
2023/04/26 08:36:36;;;;;;;;;;;6.90;99.90;;;;;;5015217;28;19917;-70
2023/04/26 08:39:01;;;;;;;;;;;7.00;99.90;;;;;;5012064;28;19966;-70
2023/04/26 08:41:27;;;;;;;;;;;7.10;99.90;;;;;;5016604;28;19913;-70
2023/04/26 08:43:54;;;;;;;;;;;7.10;99.90;;;;;;5015532;28;19909;-72
2023/04/26 08:46:21;;;;;;;;;;;7.00;99.90;;;;;;5016054;28;19917;-70
2023/04/26 08:48:58;;;;;;;;;;;7.20;99.90;;;;;;5015413;28;19924;-71
2023/04/26 08:51:27;;;;;;;;;;;7.20;99.90;;;;;;5014982;28;19917;-70
2023/04/26 08:53:54;;;;;;;;;;;7.20;99.90;;;;;;5016395;28;19958;-70
2023/04/26 08:56:21;;;;;;;;;;;7.40;99.90;;;;;;5014003;28;19910;-73
2023/04/26 08:58:47;;;;;;;;;;;7.60;99.90;;;;;;5014960;28;19909;-70
2023/04/26 09:01:14;;;;;;;;;;;7.70;99.90;;;;;;5016576;28;20396;-71
2023/04/26 09:03:40;;;;;;;;;;;7.80;99.90;;;;;;5014223;28;19936;-71
2023/04/26 09:06:06;;;;;;;;;;;7.80;99.90;;;;;;5014168;28;19916;-71
2023/04/26 09:08:34;;;;;;;;;;;7.80;99.90;;;;;;5012736;28;20374;-70
2023/04/26 09:11:00;;;;;;;;;;;7.80;99.90;;;;;;5016589;28;19949;-69
2023/04/26 09:13:29;;;;;;;;;;;7.90;99.90;;;;;;5013826;28;19917;-69
2023/04/26 09:15:55;;;;;;;;;;;8.00;99.90;;;;;;4999446;28;19917;-70
2023/04/26 09:18:22;;;;;;;;;;;8.10;99.90;;;;;;5013674;28;19916;-72
2023/04/26 09:21:06;;;;;;;;;;;8.20;99.90;;;;;;5011565;28;19920;-69
2023/04/26 09:23:32;;;;;;;;;;;8.20;99.90;;;;;;5012583;28;20354;-71
2023/04/26 09:26:16;;;;;;;;;;;8.30;99.90;;;;;;5012982;28;19909;-69
2023/04/26 09:28:42;;;;;;;;;;;8.50;99.90;;;;;;5016598;28;19917;-71
2023/04/26 09:31:08;;;;;;;;;;;8.50;99.90;;;;;;5015870;28;19916;-70
2023/04/26 09:33:34;;;;;;;;;;;8.40;99.90;;;;;;5017483;28;19929;-72
2023/04/26 09:36:11;;;;;;;;;;;8.40;99.90;;;;;;5011053;28;19909;-72
2023/04/26 09:38:41;;;;;;;;;;;8.20;99.90;;;;;;5013735;28;20168;-70
2023/04/26 09:41:06;;;;;;;;;;;8.00;99.90;;;;;;5011864;28;19913;-71
2023/04/26 09:43:36;;;;;;;;;;;8.00;99.90;;;;;;5015454;28;19962;-70
2023/04/26 09:46:02;;;;;;;;;;;8.00;99.90;;;;;;5022402;28;19913;-70
2023/04/26 09:48:33;;;;;;;;;;;8.10;99.90;;;;;;5022555;28;19913;-71
2023/04/26 09:51:01;;;;;;;;;;;8.20;99.90;;;;;;5048235;28;20276;-70
2023/04/26 09:53:27;;;;;;;;;;;8.40;99.90;;;;;;5009521;28;19918;-71
2023/04/26 09:55:53;;;;;;;;;;;8.60;99.90;;;;;;5014350;28;20354;-70
2023/04/26 09:58:19;;;;;;;;;;;8.80;99.90;;;;;;5013370;28;19913;-72
2023/04/26 10:00:47;;;;;;;;;;;9.10;99.90;;;;;;4995454;28;20385;-70
2023/04/26 10:03:13;;;;;;;;;;;9.10;99.90;;;;;;5018238;28;19913;-70
2023/04/26 10:05:39;;;;;;;;;;;9.10;99.90;;;;;;5013084;28;19928;-70
2023/04/26 10:08:06;;;;;;;;;;;8.90;99.90;;;;;;5014746;28;19912;-69
2023/04/26 10:10:31;;;;;;;;;;;8.80;99.90;;;;;;5012122;28;19916;-69
2023/04/26 10:12:57;;;;;;;;;;;8.60;99.90;;;;;;5013743;28;19950;-70
2023/04/26 10:15:23;;;;;;;;;;;8.50;99.90;;;;;;5012674;28;19963;-69
2023/04/26 10:17:48;;;;;;;;;;;8.40;99.90;;;;;;5014080;28;19913;-72
2023/04/26 10:20:15;;;;;;;;;;;8.50;99.90;;;;;;5014790;28;19917;-71
2023/04/26 10:22:45;;;;;;;;;;;8.60;99.90;;;;;;5016080;28;19914;-70
2023/04/26 10:25:11;;;;;;;;;;;8.80;99.90;;;;;;5011014;28;20004;-69
2023/04/26 10:27:42;;;;;;;;;;;9.00;99.90;;;;;;5014791;28;20003;-70
2023/04/26 10:30:08;;;;;;;;;;;9.10;99.90;;;;;;5006134;28;20388;-70
2023/04/26 10:32:53;;;;;;;;;;;9.10;99.90;;;;;;5008770;28;19927;-73
2023/04/26 10:35:18;;;;;;;;;;;9.10;99.90;;;;;;5008982;28;19987;-69
2023/04/26 10:38:02;;;;;;;;;;;9.10;99.90;;;;;;4997949;28;20329;-71
2023/04/26 10:40:38;;;;;;;;;;;9.10;99.90;;;;;;5010096;28;19916;-70
2023/04/26 10:43:10;;;;;;;;;;;9.10;99.90;;;;;;5014216;28;19913;-70
2023/04/26 10:45:36;;;;;;;;;;;9.10;99.90;;;;;;5012042;28;19924;-70
2023/04/26 10:48:17;;;;;;;;;;;9.30;99.90;;;;;;5010352;28;19917;-70
2023/04/26 10:51:01;;;;;;;;;;;9.40;99.90;;;;;;4995060;28;20436;-70
2023/04/26 10:53:30;;;;;;;;;;;9.60;99.90;;;;;;5011981;28;19909;-73
2023/04/26 10:55:56;;;;;;;;;;;9.50;99.90;;;;;;5012879;28;19909;-72
2023/04/26 10:58:32;;;;;;;;;;;9.20;99.90;;;;;;5011988;28;19917;-72
2023/04/26 11:01:10;;;;;;;;;;;8.90;99.90;;;;;;5009707;28;20036;-71
2023/04/26 11:03:36;;;;;;;;;;;8.60;99.90;;;;;;5012171;28;19920;-70
2023/04/26 11:06:05;;;;;;;;;;;8.40;99.90;;;;;;5011615;28;19909;-72
2023/04/26 11:08:33;;;;;;;;;;;8.40;99.90;;;;;;5014033;28;19933;-70
2023/04/26 11:10:58;;;;;;;;;;;8.40;99.90;;;;;;5011226;28;19912;-68
2023/04/26 11:13:24;;;;;;;;;;;8.30;99.90;;;;;;5014704;28;19924;-70
2023/04/26 11:15:53;;;;;;;;;;;8.40;99.90;;;;;;5014590;28;19952;-71
2023/04/26 11:18:20;;;;;;;;;;;8.40;99.90;;;;;;5012731;28;20008;-70
2023/04/26 11:20:45;;;;;;;;;;;8.70;99.90;;;;;;5013683;28;19917;-78
2023/04/26 11:23:11;;;;;;;;;;;9.00;99.90;;;;;;4982838;28;19914;-69
2023/04/26 11:25:40;;;;;;;;;;;9.20;99.90;;;;;;5014922;28;19913;-71
2023/04/26 11:28:06;;;;;;;;;;;9.30;99.90;;;;;;5010684;28;19917;-70
2023/04/26 11:30:32;;;;;;;;;;;9.30;99.90;;;;;;5039628;28;19913;-70
2023/04/26 11:32:58;;;;;;;;;;;9.30;99.90;;;;;;5018772;28;20051;-71
2023/04/26 11:35:24;;;;;;;;;;;9.30;99.90;;;;;;5017672;28;19945;-70
2023/04/26 11:37:50;;;;;;;;;;;9.20;99.90;;;;;;5014653;28;19933;-71
2023/04/26 11:40:16;;;;;;;;;;;9.20;99.90;;;;;;5015205;28;19909;-70
2023/04/26 11:42:43;;;;;;;;;;;9.00;99.90;;;;;;5011721;28;20364;-70
2023/04/26 11:45:09;;;;;;;;;;;8.90;99.90;;;;;;5017436;28;19914;-69
2023/04/26 11:47:35;;;;;;;;;;;8.70;99.90;;;;;;4999186;28;19909;-69
2023/04/26 11:50:02;;;;;;;;;;;8.70;99.90;;;;;;5013875;28;19924;-70
2023/04/26 11:52:28;;;;;;;;;;;8.60;99.90;;;;;;5016157;28;19939;-69
2023/04/26 11:55:02;;;;;;;;;;;8.70;99.90;;;;;;5012846;28;20015;-69
2023/04/26 11:57:30;;;;;;;;;;;9.30;99.90;;;;;;5017727;28;20004;-73
2023/04/26 12:00:13;;;;;;;;;;;9.70;99.90;;;;;;5018536;28;19920;-74
2023/04/26 12:02:40;;;;;;;;;;;10.00;99.90;;;;;;5047772;28;20384;-70
2023/04/26 12:05:06;;;;;;;;;;;10.60;99.70;;;;;;4997355;28;20004;-69
2023/04/26 12:07:38;;;;;;;;;;;11.00;96.50;;;;;;5019331;28;19913;-68
2023/04/26 12:10:12;;;;;;;;;;;11.70;95.80;;;;;;5014858;28;20153;-69
2023/04/26 12:12:42;;;;;;;;;;;12.30;94.60;;;;;;5016957;28;20039;-71
2023/04/26 12:15:09;;;;;;;;;;;12.60;95.70;;;;;;5015236;28;20336;-69
2023/04/26 12:17:35;;;;;;;;;;;12.10;90.60;;;;;;5014436;28;19925;-70
2023/04/26 12:20:07;;;;;;;;;;;11.60;90.00;;;;;;5017466;28;19912;-73
2023/04/26 12:22:33;;;;;;;;;;;11.60;91.00;;;;;;5034226;28;19913;-69
2023/04/26 12:25:05;;;;;;;;;;;12.40;88.70;;;;;;5019152;28;19909;-70
2023/04/26 12:27:31;;;;;;;;;;;12.90;85.20;;;;;;5011421;28;19921;-70
2023/04/26 12:29:56;;;;;;;;;;;13.50;85.30;;;;;;5017438;28;19927;-69
2023/04/26 12:32:22;;;;;;;;;;;14.00;76.10;;;;;;4998468;28;20436;-70
2023/04/26 12:34:48;;;;;;;;;;;13.40;77.60;;;;;;5016165;28;20000;-69
2023/04/26 12:37:13;;;;;;;;;;;13.40;77.50;;;;;;5014205;28;19968;-69
2023/04/26 12:39:39;;;;;;;;;;;13.70;76.90;;;;;;5012668;28;20369;-69
2023/04/26 12:42:05;;;;;;;;;;;13.60;76.80;;;;;;5015433;28;19913;-69
2023/04/26 12:44:31;;;;;;;;;;;13.00;78.40;;;;;;5014625;28;19912;-68
2023/04/26 12:46:56;;;;;;;;;;;12.50;80.20;;;;;;5014899;28;20009;-68
2023/04/26 12:49:22;;;;;;;;;;;11.70;78.90;;;;;;5014753;28;19972;-70
2023/04/26 12:51:48;;;;;;;;;;;11.20;77.80;;;;;;5012512;28;19917;-71
2023/04/26 12:54:13;;;;;;;;;;;10.90;79.70;;;;;;5008803;28;19913;-69
2023/04/26 12:56:45;;;;;;;;;;;10.70;78.70;;;;;;5010129;28;19920;-72
2023/04/26 12:59:11;;;;;;;;;;;10.60;81.40;;;;;;5031556;28;19913;-71
2023/04/26 13:01:36;;;;;;;;;;;10.60;82.80;;;;;;5015410;28;19955;-71
2023/04/26 13:04:04;;;;;;;;;;;10.70;83.30;;;;;;5013807;28;19963;-70
2023/04/26 13:06:31;;;;;;;;;;;11.40;84.70;;;;;;5014573;28;20001;-71
2023/04/26 13:08:56;;;;;;;;;;;12.60;81.60;;;;;;5012914;28;19952;-71
2023/04/26 13:11:22;;;;;;;;;;;13.50;76.20;;;;;;5013047;28;20317;-72
2023/04/26 13:13:48;;;;;;;;;;;14.50;73.30;;;;;;5013408;28;20012;-72
2023/04/26 13:16:14;;;;;;;;;;;15.40;70.40;;;;;;5046946;28;19913;-72
2023/04/26 13:18:40;;;;;;;;;;;16.10;65.60;;;;;;5012745;28;19924;-71
2023/04/26 13:21:05;;;;;;;;;;;17.20;60.70;;;;;;5014269;28;19920;-70
2023/04/26 13:23:31;;;;;;;;;;;17.90;53.40;;;;;;5011176;28;19910;-70
2023/04/26 13:25:57;;;;;;;;;;;18.60;49.80;;;;;;5007778;28;19916;-69
2023/04/26 13:28:22;;;;;;;;;;;19.00;48.40;;;;;;5022109;28;19909;-70
2023/04/26 13:30:48;;;;;;;;;;;19.00;48.30;;;;;;5026464;28;19919;-71
2023/04/26 13:33:13;;;;;;;;;;;19.10;46.90;;;;;;5025659;28;19940;-71
2023/04/26 13:35:39;;;;;;;;;;;19.10;47.70;;;;;;5021891;28;19913;-71
2023/04/26 13:38:04;;;;;;;;;;;18.40;45.90;;;;;;5022595;28;19987;-70
2023/04/26 13:40:33;;;;;;;;;;;16.70;49.40;;;;;;5017339;28;19909;-70
2023/04/26 13:42:59;;;;;;;;;;;15.30;53.50;;;;;;5015379;28;19909;-71
2023/04/26 13:45:24;;;;;;;;;;;14.50;55.30;;;;;;5018903;28;19924;-70
2023/04/26 13:47:50;;;;;;;;;;;15.10;54.10;;;;;;5017629;28;19973;-69
2023/04/26 13:50:16;;;;;;;;;;;14.30;55.40;;;;;;5015565;28;19924;-70
2023/04/26 13:52:41;;;;;;;;;;;13.60;58.10;;;;;;5014716;28;19920;-70
2023/04/26 13:55:07;;;;;;;;;;;13.40;59.90;;;;;;5024567;28;19952;-73
2023/04/26 13:57:33;;;;;;;;;;;13.20;61.80;;;;;;5014832;28;19913;-71
2023/04/26 13:59:58;;;;;;;;;;;13.10;63.30;;;;;;5011268;28;20320;-70
2023/04/26 14:02:24;;;;;;;;;;;13.30;62.60;;;;;;4994414;28;19917;-71
2023/04/26 14:04:50;;;;;;;;;;;13.00;57.40;;;;;;5010027;28;19921;-71
2023/04/26 14:07:16;;;;;;;;;;;12.70;56.70;;;;;;5002585;28;20389;-70
2023/04/26 14:09:41;;;;;;;;;;;12.40;58.60;;;;;;5006569;28;20312;-71
2023/04/26 14:12:07;;;;;;;;;;;12.20;58.40;;;;;;5015448;28;19921;-69
2023/04/26 14:14:33;;;;;;;;;;;12.00;60.60;;;;;;5010555;28;19995;-69
2023/04/26 14:16:58;;;;;;;;;;;11.90;60.70;;;;;;5011365;28;20327;-72
2023/04/26 14:19:25;;;;;;;;;;;11.70;61.90;;;;;;5009864;28;19917;-74
2023/04/26 14:21:50;;;;;;;;;;;11.70;60.70;;;;;;5005969;28;19941;-70
2023/04/26 14:24:16;;;;;;;;;;;11.70;59.70;;;;;;5012330;28;19944;-71
2023/04/26 14:26:42;;;;;;;;;;;11.70;58.90;;;;;;5009205;28;19909;-69